Terminal Aerodrome Forecast
Issued by NWS

Home | Current Version | Previous Version | Text Only | Print | Product List | Glossary On
Versions: 1 2 3 4 5 6 7 8 9 10 11 12 13 14 15 16
894
FTUS46 KEKA 221123
TAFCEC
TAF
KCEC 221123Z 2212/2312 18025G38KT 6SM -SHRA SCT025 OVC040
     FM221600 18022G30KT P6SM VCSH SCT025 BKN040
     FM230200 17012G20KT P6SM -RA SCT020 BKN030=

USA.gov is the U.S. government's official web portal to all federal, state and local government web resources and services.